Time;durP1;ratioP1;P1;durP2;ratioP2;P2;SDS_P1;SDS_P2;PMS_P1;PMS_P2;Temp;Humidity;BMP_temperature;BMP_pressure;BME280_temperature;BME280_humidity;BME280_pressure;Samples;Min_cycle;Max_cycle;Signal;HPM_P1;HPM_P2
2023/06/15 00:00:28;;;;;;;4.38;2.85;;;;;;;19.63;88.87;101836.75;5079591;28;20044;-50
2023/06/15 00:02:54;;;;;;;5.90;3.55;;;;;;;19.56;89.31;101835.94;5089178;28;20031;-46
2023/06/15 00:05:20;;;;;;;7.65;3.33;;;;;;;19.51;90.18;101840.16;5090491;28;20036;-47
2023/06/15 00:07:46;;;;;;;15.50;3.22;;;;;;;19.44;90.82;101831.16;5073749;28;20024;-45
2023/06/15 00:10:12;;;;;;;7.65;3.75;;;;;;;19.45;91.36;101838.28;5071232;28;20029;-46
2023/06/15 00:12:38;;;;;;;8.20;3.22;;;;;;;19.42;91.91;101837.88;5086071;28;20077;-46
2023/06/15 00:15:03;;;;;;;5.82;3.28;;;;;;;19.37;92.36;101834.97;5075118;28;20020;-46
2023/06/15 00:17:30;;;;;;;6.50;2.90;;;;;;;19.28;93.04;101837.94;5074634;28;20036;-44
2023/06/15 00:19:57;;;;;;;6.75;2.65;;;;;;;19.17;94.27;101838.63;5083021;28;20020;-44
2023/06/15 00:22:26;;;;;;;7.18;3.22;;;;;;;19.17;94.33;101832.28;5085674;28;20450;-45
2023/06/15 00:24:52;;;;;;;5.00;3.40;;;;;;;19.14;94.87;101841.78;5089875;28;20024;-47
2023/06/15 00:27:17;;;;;;;7.72;3.40;;;;;;;19.16;95.23;101836.91;5080308;28;20428;-47
2023/06/15 00:29:43;;;;;;;6.60;3.30;;;;;;;19.11;95.56;101836.72;5072992;28;20119;-48
2023/06/15 00:32:08;;;;;;;7.43;3.30;;;;;;;19.10;96.28;101845.97;5071412;28;20032;-48
2023/06/15 00:34:33;;;;;;;4.25;3.40;;;;;;;19.07;96.32;101841.78;5070753;28;20048;-48
2023/06/15 00:36:59;;;;;;;7.63;2.83;;;;;;;19.08;97.00;101840.72;5069998;28;20028;-45
2023/06/15 00:39:24;;;;;;;6.57;3.40;;;;;;;19.13;97.17;101845.53;5075464;28;20023;-47
2023/06/15 00:41:50;;;;;;;15.13;3.80;;;;;;;19.11;97.66;101839.44;5090784;28;20016;-45
2023/06/15 00:44:15;;;;;;;5.95;3.65;;;;;;;19.10;98.43;101845.16;5090785;28;20214;-47
2023/06/15 00:46:41;;;;;;;8.15;3.85;;;;;;;19.10;99.14;101842.41;5072476;28;20032;-44
2023/06/15 00:49:07;;;;;;;6.97;4.25;;;;;;;19.03;99.65;101842.41;5089842;28;20031;-47
2023/06/15 00:51:34;;;;;;;11.23;4.32;;;;;;;19.02;100.00;101838.84;5071357;28;20320;-45
2023/06/15 00:53:59;;;;;;;7.28;4.13;;;;;;;18.99;100.00;101842.03;5070545;28;20036;-45
2023/06/15 00:56:29;;;;;;;6.35;4.50;;;;;;;18.99;100.00;101839.28;5068328;28;20040;-46
2023/06/15 00:58:54;;;;;;;13.38;5.25;;;;;;;18.94;100.00;101844.53;5052851;28;20033;-47
2023/06/15 01:01:21;;;;;;;13.25;4.75;;;;;;;18.92;100.00;101841.19;5070767;28;20055;-45
2023/06/15 01:03:46;;;;;;;8.88;4.53;;;;;;;18.90;100.00;101846.00;5071412;28;20544;-46
2023/06/15 01:06:14;;;;;;;13.00;5.05;;;;;;;18.88;100.00;101842.69;5088551;28;20019;-48
2023/06/15 01:08:42;;;;;;;7.63;5.10;;;;;;;18.84;100.00;101841.41;5088569;28;20118;-46
2023/06/15 01:11:07;;;;;;;14.20;5.05;;;;;;;18.82;100.00;101848.97;5084717;28;20482;-48
2023/06/15 01:13:34;;;;;;;6.63;4.90;;;;;;;18.82;100.00;101852.53;5088191;28;20106;-48
2023/06/15 01:16:10;;;;;;;8.45;4.80;;;;;;;18.77;100.00;101848.75;5072899;28;20036;-45
2023/06/15 01:18:41;;;;;;;6.47;4.80;;;;;;;18.73;100.00;101848.31;5078001;28;20044;-44
2023/06/15 01:21:07;;;;;;;10.15;5.35;;;;;;;18.70;100.00;101859.66;5073741;28;20024;-46
2023/06/15 01:23:55;;;;;;;15.98;5.38;;;;;;;18.65;100.00;101854.00;5081471;28;20047;-44
2023/06/15 01:26:24;;;;;;;13.57;5.45;;;;;;;18.57;100.00;101852.31;5072319;28;20033;-44
2023/06/15 01:28:49;;;;;;;9.93;5.93;;;;;;;18.54;100.00;101852.75;5070345;28;20028;-46
2023/06/15 01:31:15;;;;;;;11.57;5.35;;;;;;;18.56;100.00;101856.09;5068961;28;20086;-44
2023/06/15 01:33:48;;;;;;;14.52;5.70;;;;;;;18.54;100.00;101852.75;5077430;28;20035;-44
2023/06/15 01:36:14;;;;;;;13.98;5.50;;;;;;;18.51;100.00;101858.63;5082301;28;20500;-44
2023/06/15 01:38:40;;;;;;;13.07;5.72;;;;;;;18.46;100.00;101855.69;5070100;28;20021;-47
2023/06/15 01:41:07;;;;;;;10.90;5.70;;;;;;;18.41;100.00;101852.75;5073319;28;20055;-47
2023/06/15 01:43:34;;;;;;;16.13;5.97;;;;;;;18.38;100.00;101855.91;5071062;28;20016;-46
2023/06/15 01:46:00;;;;;;;13.53;5.70;;;;;;;18.33;100.00;101859.25;5050174;28;20028;-45
2023/06/15 01:48:26;;;;;;;9.98;5.32;;;;;;;18.30;100.00;101859.66;5084600;28;20304;-46
2023/06/15 01:50:52;;;;;;;12.18;6.10;;;;;;;18.29;100.00;101848.97;5076328;28;20319;-45
2023/06/15 01:53:17;;;;;;;12.65;5.93;;;;;;;18.24;100.00;101862.38;5075464;28;20446;-45
2023/06/15 01:55:43;;;;;;;12.98;5.70;;;;;;;18.19;100.00;101861.13;5089686;28;20036;-44
2023/06/15 01:58:11;;;;;;;9.25;6.30;;;;;;;18.25;100.00;101861.34;5079549;28;20028;-46
2023/06/15 02:00:36;;;;;;;20.13;5.68;;;;;;;18.19;100.00;101863.84;5080693;28;20044;-45
2023/06/15 02:03:01;;;;;;;13.93;6.53;;;;;;;18.23;100.00;101861.53;5077138;28;20431;-50
2023/06/15 02:05:28;;;;;;;14.30;5.35;;;;;;;18.19;100.00;101860.25;5085680;28;20032;-46
2023/06/15 02:07:53;;;;;;;17.30;6.40;;;;;;;18.25;100.00;101861.34;5088741;28;20053;-45
2023/06/15 02:10:19;;;;;;;16.95;6.05;;;;;;;18.23;100.00;101860.69;5087940;28;20111;-43
2023/06/15 02:12:44;;;;;;;9.90;5.90;;;;;;;18.20;100.00;101862.78;5089355;28;20032;-45
2023/06/15 02:15:11;;;;;;;15.90;6.35;;;;;;;18.14;100.00;101860.91;5084145;28;20111;-45
2023/06/15 02:17:39;;;;;;;13.63;6.53;;;;;;;18.11;100.00;101868.63;5070648;28;20036;-45
2023/06/15 02:20:11;;;;;;;13.45;5.60;;;;;;;18.09;100.00;101860.69;5072567;28;20040;-44
2023/06/15 02:22:38;;;;;;;13.43;6.57;;;;;;;18.09;100.00;101860.69;5077443;28;20233;-45
2023/06/15 02:25:07;;;;;;;10.45;5.78;;;;;;;18.11;100.00;101863.19;5072889;28;20107;-43
2023/06/15 02:27:33;;;;;;;13.75;6.95;;;;;;;18.07;100.00;101868.22;5072223;28;20102;-49
2023/06/15 02:29:58;;;;;;;9.88;5.90;;;;;;;18.06;100.00;101874.72;5080980;28;20071;-46
2023/06/15 02:32:34;;;;;;;12.98;6.30;;;;;;;18.03;100.00;101868.84;5086288;28;20119;-46
2023/06/15 02:35:02;;;;;;;13.15;6.53;;;;;;;17.97;100.00;101868.59;5088488;28;20059;-48
2023/06/15 02:37:27;;;;;;;12.38;6.57;;;;;;;17.96;100.00;101866.94;5091344;28;20043;-48
2023/06/15 02:39:54;;;;;;;17.50;7.40;;;;;;;17.96;100.00;101875.13;5092438;28;20044;-45
2023/06/15 02:42:19;;;;;;;22.35;6.70;;;;;;;17.97;100.00;101875.94;5093091;28;20020;-45
2023/06/15 02:44:44;;;;;;;15.65;6.60;;;;;;;17.89;100.00;101879.69;5092031;28;20117;-47
2023/06/15 02:47:10;;;;;;;18.55;7.00;;;;;;;17.88;100.00;101875.31;5090062;28;20081;-47
2023/06/15 02:49:35;;;;;;;12.63;7.22;;;;;;;17.90;100.00;101873.19;5090556;28;20443;-47
2023/06/15 02:52:00;;;;;;;12.18;7.45;;;;;;;17.86;100.00;101871.09;5072862;28;20078;-47
2023/06/15 02:54:26;;;;;;;14.70;7.18;;;;;;;17.87;100.00;101875.50;5072440;28;20044;-46
2023/06/15 02:56:53;;;;;;;19.80;7.47;;;;;;;17.82;100.00;101873.38;5071589;28;20039;-49
2023/06/15 02:59:25;;;;;;;17.38;8.02;;;;;;;17.77;100.00;101882.16;5072796;28;20553;-48
2023/06/15 03:01:51;;;;;;;17.67;7.88;;;;;;;17.73;100.00;101883.59;5073000;28;20090;-48
2023/06/15 03:04:17;;;;;;;22.60;8.35;;;;;;;17.70;100.00;101884.00;5071366;28;20081;-49
2023/06/15 03:06:43;;;;;;;15.32;7.85;;;;;;;17.72;100.00;101881.94;5080737;28;20028;-50
2023/06/15 03:09:08;;;;;;;15.85;7.72;;;;;;;17.75;100.00;101881.50;5086208;28;20396;-47
2023/06/15 03:11:33;;;;;;;14.20;8.10;;;;;;;17.81;100.00;101876.31;5077079;28;20056;-46
2023/06/15 03:13:59;;;;;;;18.25;9.10;;;;;;;17.70;100.00;101875.84;5089238;28;20114;-45
2023/06/15 03:16:25;;;;;;;19.40;8.90;;;;;;;17.68;100.00;101886.09;5075134;28;20027;-47
2023/06/15 03:18:52;;;;;;;18.23;9.05;;;;;;;17.71;100.00;101887.56;5082445;28;20037;-46
2023/06/15 03:21:20;;;;;;;17.88;9.02;;;;;;;17.69;100.00;101886.91;5078613;28;20036;-44
2023/06/15 03:23:45;;;;;;;;;;;;;;;17.65;100.00;101886.50;5074484;28;20040;-44
2023/06/15 03:26:11;;;;;;;18.25;8.75;;;;;;;17.70;100.00;101894.06;5078904;28;19913;-45
2023/06/15 03:28:38;;;;;;;16.92;9.23;;;;;;;17.64;100.00;101887.56;5075020;28;20024;-46
2023/06/15 03:31:04;;;;;;;23.63;9.17;;;;;;;17.65;100.00;101891.94;5065115;28;20543;-47
2023/06/15 03:33:30;;;;;;;19.85;9.00;;;;;;;17.67;100.00;101881.69;5073617;28;20487;-48
2023/06/15 03:35:57;;;;;;;19.38;9.70;;;;;;;17.69;100.00;101893.22;5073909;28;20043;-45
2023/06/15 03:38:23;;;;;;;30.93;9.67;;;;;;;17.66;100.00;101887.34;5079163;28;20024;-47
2023/06/15 03:40:48;;;;;;;20.80;10.05;;;;;;;17.65;100.00;101894.66;5083361;28;20036;-47
2023/06/15 03:43:14;;;;;;;26.50;9.45;;;;;;;17.62;100.00;101897.78;5082253;28;20215;-48
2023/06/15 03:45:39;;;;;;;20.52;9.18;;;;;;;17.65;100.00;101891.09;5077381;28;20029;-48
2023/06/15 03:48:05;;;;;;;21.08;8.80;;;;;;;17.61;100.00;101898.81;5074836;28;20029;-49
2023/06/15 03:50:31;;;;;;;21.55;9.32;;;;;;;17.62;100.00;101897.78;5083939;28;20389;-48
2023/06/15 03:52:56;;;;;;;20.30;10.10;;;;;;;17.67;100.00;101899.91;5089011;28;20032;-47
2023/06/15 03:55:22;;;;;;;27.40;10.27;;;;;;;17.62;100.00;101905.97;5057129;28;20423;-47
2023/06/15 03:57:47;;;;;;;23.13;9.82;;;;;;;17.62;100.00;101897.78;5086642;28;20040;-47
2023/06/15 04:00:13;;;;;;;30.25;9.82;;;;;;;17.67;100.00;101895.31;5076885;28;20440;-47
2023/06/15 04:02:39;;;;;;;28.23;10.30;;;;;;;17.67;100.00;101900.75;5086061;28;20385;-46
2023/06/15 04:05:05;;;;;;;24.90;10.38;;;;;;;17.71;100.00;101895.72;5087022;28;20032;-48
2023/06/15 04:07:31;;;;;;;25.65;11.63;;;;;;;17.72;100.00;101898.25;5085426;28;20089;-48
2023/06/15 04:09:56;;;;;;;26.15;10.98;;;;;;;17.70;100.00;101900.34;5086568;28;20569;-48
2023/06/15 04:12:22;;;;;;;28.92;11.45;;;;;;;17.74;100.00;101904.31;5078836;28;20463;-46
2023/06/15 04:14:47;;;;;;;32.10;13.20;;;;;;;17.80;100.00;101904.59;5070534;28;20140;-44
2023/06/15 04:17:13;;;;;;;38.53;15.52;;;;;;;17.82;100.00;101902.50;5068202;28;20028;-43
2023/06/15 04:19:38;;;;;;;43.72;15.98;;;;;;;17.88;100.00;101901.69;5081949;28;20024;-47
2023/06/15 04:22:05;;;;;;;48.70;19.08;;;;;;;17.98;100.00;101913.03;5082887;28;20094;-49
2023/06/15 04:24:30;;;;;;;50.15;19.48;;;;;;;18.02;100.00;101914.31;5062584;28;20029;-49
2023/06/15 04:26:59;;;;;;;49.22;20.08;;;;;;;18.04;100.00;101905.94;5073599;28;20036;-49
2023/06/15 04:29:29;;;;;;;39.65;18.83;;;;;;;18.08;100.00;101913.47;5081480;28;20071;-49
2023/06/15 04:31:55;;;;;;;42.50;18.77;;;;;;;18.14;100.00;101901.78;5070273;28;20102;-48
2023/06/15 04:34:26;;;;;;;42.10;18.60;;;;;;;18.17;100.00;101912.25;5089521;28;20478;-48
2023/06/15 04:36:52;;;;;;;46.15;16.98;;;;;;;18.17;100.00;101912.25;5089284;28;20107;-46
2023/06/15 04:39:22;;;;;;;51.90;16.75;;;;;;;18.19;100.00;101910.16;5074925;28;20040;-47
2023/06/15 04:41:47;;;;;;;41.78;15.18;;;;;;;18.25;100.00;101911.22;5084021;28;20025;-45
2023/06/15 04:44:13;;;;;;;37.90;14.93;;;;;;;18.30;100.00;101913.31;5070698;28;20242;-44
2023/06/15 04:46:40;;;;;;;35.08;15.20;;;;;;;18.32;100.00;101908.50;5088955;28;20032;-47
2023/06/15 04:49:06;;;;;;;34.33;13.50;;;;;;;18.28;100.00;101908.06;5089286;28;20636;-47
2023/06/15 04:51:32;;;;;;;28.63;12.33;;;;;;;18.34;100.00;101922.75;5074234;28;20032;-49
2023/06/15 04:53:57;;;;;;;37.67;12.65;;;;;;;18.41;100.00;101918.16;5087189;28;20036;-46
2023/06/15 04:56:23;;;;;;;34.92;12.93;;;;;;;18.43;100.00;101916.03;5074089;28;20036;-48
2023/06/15 04:58:48;;;;;;;22.95;10.98;;;;;;;18.46;100.00;101920.25;5079408;28;20082;-44
2023/06/15 05:01:14;;;;;;;30.00;11.32;;;;;;;18.48;100.00;101929.06;5054039;28;20055;-46
2023/06/15 05:03:40;;;;;;;29.25;10.88;;;;;;;18.43;100.00;101921.50;5072599;28;20037;-48
2023/06/15 05:06:05;;;;;;;28.35;10.30;;;;;;;18.52;100.00;101931.16;5071456;28;20021;-46
2023/06/15 05:08:32;;;;;;;36.92;11.95;;;;;;;18.61;100.00;101920.88;5071728;28;20069;-47
2023/06/15 05:10:58;;;;;;;22.67;10.02;;;;;;;18.69;100.00;101930.75;5071238;28;20498;-49
2023/06/15 05:13:23;;;;;;;29.42;10.68;;;;;;;18.75;100.00;101924.50;5070760;28;20036;-45
2023/06/15 05:15:50;;;;;;;26.67;10.65;;;;;;;18.83;100.00;101922.41;5070729;28;20028;-48
2023/06/15 05:18:15;;;;;;;21.75;9.82;;;;;;;18.86;100.00;101921.16;5069643;28;20060;-50
2023/06/15 05:20:40;;;;;;;31.48;9.25;;;;;;;18.88;100.00;101919.06;5073643;28;20567;-45
2023/06/15 05:23:07;;;;;;;37.03;10.13;;;;;;;18.94;100.00;101923.66;5071525;28;20552;-47
2023/06/15 05:25:33;;;;;;;23.38;9.70;;;;;;;19.02;100.00;101922.59;5070591;28;20414;-47
2023/06/15 05:27:58;;;;;;;32.47;9.77;;;;;;;19.08;100.00;101919.84;5070393;28;20033;-48
2023/06/15 05:30:26;;;;;;;25.67;9.15;;;;;;;19.21;100.00;101918.16;5069183;28;20029;-48
2023/06/15 05:32:52;;;;;;;22.25;9.18;;;;;;;19.26;100.00;101918.34;5077321;28;20077;-50
2023/06/15 05:35:17;;;;;;;19.90;8.90;;;;;;;19.33;100.00;101921.09;5087702;28;20442;-45
2023/06/15 05:37:45;;;;;;;23.70;8.98;;;;;;;19.40;100.00;101920.00;5089498;28;20055;-48
2023/06/15 05:40:11;;;;;;;21.30;8.65;;;;;;;19.44;100.00;101926.72;5086098;28;20147;-47
2023/06/15 05:42:36;;;;;;;22.38;8.05;;;;;;;19.55;100.00;101921.63;5089167;28;20047;-45
2023/06/15 05:45:02;;;;;;;21.75;7.55;;;;;;;19.64;100.00;101925.78;5071392;28;20063;-48
2023/06/15 05:47:27;;;;;;;18.10;8.50;;;;;;;19.77;100.00;101924.94;5069068;28;20028;-49
2023/06/15 05:49:53;;;;;;;20.67;8.48;;;;;;;19.85;100.00;101931.00;5070166;28;20387;-46
2023/06/15 05:52:19;;;;;;;18.35;8.35;;;;;;;19.92;100.00;101929.06;5074559;28;20035;-45
2023/06/15 05:54:45;;;;;;;19.23;8.20;;;;;;;20.00;100.00;101929.88;5085729;28;20034;-47
2023/06/15 05:57:10;;;;;;;21.73;8.68;;;;;;;20.04;100.00;101936.59;5088845;28;20119;-47
2023/06/15 05:59:36;;;;;;;20.80;7.53;;;;;;;20.10;100.00;101938.44;5088776;28;20100;-46
2023/06/15 06:02:02;;;;;;;14.98;7.60;;;;;;;20.15;100.00;101935.91;5088518;28;20115;-46
2023/06/15 06:04:28;;;;;;;18.23;6.95;;;;;;;20.14;100.00;101934.19;5077760;28;20029;-46
2023/06/15 06:06:53;;;;;;;17.67;6.72;;;;;;;20.16;100.00;101934.81;5070350;28;20040;-46
2023/06/15 06:09:19;;;;;;;14.57;7.00;;;;;;;20.28;100.00;101935.81;5070744;28;20430;-45
2023/06/15 06:11:47;;;;;;;16.95;7.40;;;;;;;20.40;100.00;101933.19;5081867;28;20557;-45
2023/06/15 06:14:13;;;;;;;13.95;7.07;;;;;;;20.50;100.00;101938.19;5092920;28;20426;-47
2023/06/15 06:16:38;;;;;;;13.18;6.60;;;;;;;20.65;100.00;101941.47;5086212;28;20031;-46
2023/06/15 06:19:04;;;;;;;12.95;6.45;;;;;;;20.71;100.00;101937.84;5072419;28;20029;-45
2023/06/15 06:21:31;;;;;;;17.33;6.45;;;;;;;20.76;100.00;101938.00;5073441;28;20479;-48
2023/06/15 06:23:56;;;;;;;14.35;7.13;;;;;;;20.92;100.00;101944.00;5072588;28;20462;-46
2023/06/15 06:26:22;;;;;;;11.70;6.60;;;;;;;21.06;100.00;101945.53;5072488;28;20029;-46
2023/06/15 06:28:48;;;;;;;13.07;6.60;;;;;;;21.19;100.00;101928.97;5074637;28;20025;-47
2023/06/15 06:31:13;;;;;;;15.38;6.95;;;;;;;21.25;100.00;101939.03;5077348;28;20028;-45
2023/06/15 06:33:39;;;;;;;14.32;6.28;;;;;;;21.43;100.00;101937.41;5073391;28;20028;-48
2023/06/15 06:36:08;;;;;;;14.98;6.72;;;;;;;21.66;100.00;101934.81;5073756;28;20021;-44
2023/06/15 06:38:33;;;;;;;11.70;6.63;;;;;;;21.81;100.00;101936.34;5074924;28;20025;-45
2023/06/15 06:40:59;;;;;;;11.32;5.93;;;;;;;21.89;100.00;101928.63;5079508;28;20478;-46
2023/06/15 06:43:24;;;;;;;10.55;6.13;;;;;;;21.96;100.00;101931.28;5093271;28;20093;-45
2023/06/15 06:45:49;;;;;;;14.27;6.28;;;;;;;21.97;100.00;101938.44;5075514;28;20028;-45
2023/06/15 06:48:15;;;;;;;12.02;6.35;;;;;;;22.02;100.00;101933.09;5092053;28;20028;-45
2023/06/15 06:50:40;;;;;;;17.10;6.22;;;;;;;22.13;100.00;101932.28;5087067;28;20032;-47
2023/06/15 06:53:06;;;;;;;10.75;5.40;;;;;;;22.25;100.00;101934.25;5073371;28;20423;-49
2023/06/15 06:55:31;;;;;;;19.10;6.88;;;;;;;22.44;100.00;101929.56;5073153;28;20101;-46
2023/06/15 06:58:00;;;;;;;9.68;6.45;;;;;;;22.75;100.00;101931.19;5085016;28;20028;-44
2023/06/15 07:00:25;;;;;;;11.10;6.22;;;;;;;23.12;100.00;101925.50;5078517;28;20152;-48
2023/06/15 07:02:51;;;;;;;10.82;5.85;;;;;;;23.76;98.84;101929.09;5077962;28;20493;-47
2023/06/15 07:05:16;;;;;;;14.82;6.47;;;;;;;24.35;95.18;101942.59;5073310;28;20056;-45
2023/06/15 07:07:42;;;;;;;12.13;5.22;;;;;;;25.54;89.86;101938.75;5093090;28;20028;-47
2023/06/15 07:10:07;;;;;;;15.80;5.50;;;;;;;26.75;82.59;101942.25;5093571;28;20032;-44
2023/06/15 07:12:33;;;;;;;8.00;5.35;;;;;;;27.20;80.12;101943.72;5093093;28;20023;-47
2023/06/15 07:14:58;;;;;;;9.13;4.53;;;;;;;28.53;76.61;101941.44;5093285;28;20055;-47
2023/06/15 07:17:23;;;;;;;8.75;4.82;;;;;;;29.48;71.40;101943.50;5089744;28;20035;-45
2023/06/15 07:19:49;;;;;;;12.20;5.20;;;;;;;30.01;66.27;101953.28;5073200;28;20043;-45
2023/06/15 07:22:14;;;;;;;9.70;4.38;;;;;;;29.95;68.67;101952.50;5070607;28;20386;-44
2023/06/15 07:24:41;;;;;;;13.00;4.10;;;;;;;30.65;65.55;101957.03;5073178;28;20115;-46
2023/06/15 07:27:06;;;;;;;16.98;4.97;;;;;;;31.04;59.73;101948.63;5074313;28;20066;-47
2023/06/15 07:29:32;;;;;;;14.30;4.60;;;;;;;31.07;61.69;101945.28;5078417;28;20033;-48
2023/06/15 07:31:57;;;;;;;10.13;4.70;;;;;;;31.97;57.75;101943.69;5072515;28;20077;-45
2023/06/15 07:34:24;;;;;;;7.77;4.20;;;;;;;32.13;56.25;101947.88;5077437;28;20028;-47
2023/06/15 07:36:49;;;;;;;6.85;3.90;;;;;;;32.78;51.45;101944.34;5081165;28;20020;-46
2023/06/15 07:39:15;;;;;;;5.60;3.80;;;;;;;32.89;52.26;101950.56;5090400;28;20036;-45
2023/06/15 07:41:40;;;;;;;10.47;4.17;;;;;;;32.66;52.29;101957.13;5081317;28;20062;-46
2023/06/15 07:44:11;;;;;;;12.93;4.20;;;;;;;32.48;51.67;101951.28;5091279;28;20029;-45
2023/06/15 07:46:37;;;;;;;10.57;4.20;;;;;;;33.07;49.55;101956.41;5076671;28;20116;-44
2023/06/15 07:49:02;;;;;;;6.40;4.03;;;;;;;32.95;50.87;101945.72;5080016;28;20448;-45
2023/06/15 07:51:30;;;;;;;6.03;4.00;;;;;;;33.36;46.90;101956.97;5085684;28;20032;-46
2023/06/15 07:53:55;;;;;;;9.00;4.28;;;;;;;32.81;47.11;101948.50;5097303;28;20478;-44
2023/06/15 07:56:20;;;;;;;5.97;3.93;;;;;;;33.36;48.00;101954.19;5092978;28;20032;-46
2023/06/15 07:58:46;;;;;;;23.03;5.37;;;;;;;32.66;46.79;101946.78;5076520;28;20024;-46
2023/06/15 08:01:11;;;;;;;15.07;4.97;;;;;;;31.34;51.22;101949.44;5072189;28;20127;-44
2023/06/15 08:03:36;;;;;;;12.40;4.13;;;;;;;31.87;51.75;101949.34;5072574;28;20032;-46
2023/06/15 08:06:02;;;;;;;6.63;3.80;;;;;;;32.64;48.65;101951.03;5072184;28;20571;-45
2023/06/15 08:08:27;;;;;;;6.77;3.77;;;;;;;33.10;45.63;101950.19;5072260;28;20031;-48
2023/06/15 08:10:52;;;;;;;12.63;4.13;;;;;;;33.19;45.81;101953.94;5074259;28;20035;-47
2023/06/15 08:13:18;;;;;;;11.33;4.03;;;;;;;33.33;45.02;101954.75;5092132;28;20047;-47
2023/06/15 08:15:44;;;;;;;13.65;4.80;;;;;;;33.20;43.57;101939.69;5087199;28;20028;-47
2023/06/15 08:18:10;;;;;;;10.65;3.47;;;;;;;33.30;42.41;101949.81;5075603;28;20032;-47
2023/06/15 08:20:35;;;;;;;7.00;3.23;;;;;;;34.14;38.26;101947.78;5071519;28;20055;-46
2023/06/15 08:23:00;;;;;;;8.73;4.00;;;;;;;33.63;39.70;101947.78;5071902;28;20501;-45
2023/06/15 08:25:26;;;;;;;8.33;3.50;;;;;;;33.10;38.73;101948.25;5072045;28;20363;-46
2023/06/15 08:27:51;;;;;;;9.27;3.20;;;;;;;33.40;39.05;101949.59;5070641;28;20029;-45
2023/06/15 08:30:17;;;;;;;9.70;3.37;;;;;;;34.64;34.44;101959.72;5085798;28;20119;-47
2023/06/15 08:32:42;;;;;;;9.40;3.20;;;;;;;35.13;33.91;101952.28;5091499;28;20591;-49
2023/06/15 08:35:08;;;;;;;7.00;3.10;;;;;;;35.18;33.37;101945.72;5091712;28;20077;-47
2023/06/15 08:37:34;;;;;;;10.98;3.63;;;;;;;34.79;34.56;101938.91;5092155;28;20153;-44
2023/06/15 08:40:05;;;;;;;7.43;3.20;;;;;;;34.85;33.95;101945.19;5074092;28;20020;-46
2023/06/15 08:42:31;;;;;;;8.88;3.42;;;;;;;35.34;32.78;101948.91;5092027;28;20158;-47
2023/06/15 08:44:58;;;;;;;11.73;3.90;;;;;;;34.66;33.22;101951.00;5090373;28;20103;-47
2023/06/15 08:47:24;;;;;;;9.55;3.85;;;;;;;33.83;34.63;101951.25;5090080;28;20108;-47
2023/06/15 08:49:50;;;;;;;7.38;3.33;;;;;;;34.17;35.11;101953.56;5090012;28;20477;-45
2023/06/15 08:52:16;;;;;;;9.32;3.15;;;;;;;34.11;34.32;101956.81;5090708;28;20385;-44
2023/06/15 08:54:51;;;;;;;8.52;3.67;;;;;;;34.62;33.80;101955.59;5067929;28;20398;-44
2023/06/15 08:57:17;;;;;;;10.30;3.70;;;;;;;34.82;33.35;101943.88;5066914;28;20581;-45
2023/06/15 08:59:43;;;;;;;16.30;4.07;;;;;;;34.65;34.58;101950.19;5068029;28;20111;-47
2023/06/15 09:02:10;;;;;;;;;;;;;;;34.38;34.05;101958.66;5068302;28;20123;-46
2023/06/15 09:04:36;;;;;;;10.15;3.78;;;;;;;32.64;36.65;101953.81;5067679;28;19919;-47
2023/06/15 09:07:03;;;;;;;4.23;3.17;;;;;;;33.43;36.23;101948.97;5068072;28;20033;-47
2023/06/15 09:09:29;;;;;;;10.65;3.65;;;;;;;33.55;35.13;101944.91;5066108;28;20447;-50
2023/06/15 09:11:56;;;;;;;9.77;3.40;;;;;;;34.16;34.78;101940.75;5067600;28;20024;-48
2023/06/15 09:14:22;;;;;;;8.13;3.75;;;;;;;34.03;33.31;101944.38;5066074;28;20021;-49
2023/06/15 09:16:48;;;;;;;12.65;3.72;;;;;;;32.32;34.97;101935.91;5066205;28;20434;-49
2023/06/15 09:19:16;;;;;;;5.72;3.17;;;;;;;32.17;37.49;101942.53;5067264;28;20029;-47
2023/06/15 09:21:48;;;;;;;6.38;3.60;;;;;;;33.40;34.30;101944.03;5067943;28;20025;-46
2023/06/15 09:24:16;;;;;;;8.23;3.13;;;;;;;33.99;33.56;101943.34;5067753;28;20123;-45
2023/06/15 09:26:44;;;;;;;5.93;3.30;;;;;;;34.36;32.79;101945.00;5067661;28;20032;-45
2023/06/15 09:29:14;;;;;;;16.77;3.25;;;;;;;34.60;31.28;101947.53;5065895;28;20272;-44
2023/06/15 09:31:43;;;;;;;4.78;3.05;;;;;;;34.78;31.29;101954.03;5067376;28;20422;-45
2023/06/15 09:34:12;;;;;;;9.75;3.40;;;;;;;34.18;31.75;101944.06;5067393;28;20036;-48
2023/06/15 09:36:49;;;;;;;7.55;3.00;;;;;;;34.69;30.15;101954.00;5067387;28;20048;-46
2023/06/15 09:39:16;;;;;;;6.93;3.35;;;;;;;34.68;30.09;101955.16;5066995;28;20108;-48
2023/06/15 09:42:00;;;;;;;6.70;3.38;;;;;;;34.61;30.51;101949.16;5065829;28;20387;-47
2023/06/15 09:44:26;;;;;;;6.05;3.42;;;;;;;34.90;29.93;101950.66;5065756;28;20439;-46
2023/06/15 09:47:01;;;;;;;7.72;3.78;;;;;;;34.98;30.40;101949.88;5066988;28;20135;-46
2023/06/15 09:49:27;;;;;;;11.75;3.22;;;;;;;35.22;30.08;101951.50;5066570;28;20032;-46
2023/06/15 09:51:54;;;;;;;8.25;3.03;;;;;;;35.08;30.42;101940.41;5065185;28;20086;-45
2023/06/15 09:54:22;;;;;;;;;;;;;;;35.35;29.77;101944.97;5066949;28;20048;-46
2023/06/15 09:56:49;;;;;;;11.52;3.63;;;;;;;35.33;29.70;101942.47;5066496;28;19913;-47
2023/06/15 09:59:15;;;;;;;7.45;3.42;;;;;;;34.78;29.66;101942.03;5067059;28;20025;-46
2023/06/15 10:01:42;;;;;;;8.80;3.73;;;;;;;34.53;29.01;101947.13;5065812;28;20123;-46
2023/06/15 10:04:08;;;;;;;9.35;3.42;;;;;;;34.02;30.83;101932.38;5063305;28;20025;-48
2023/06/15 10:06:34;;;;;;;7.00;3.92;;;;;;;34.91;30.91;101941.09;5053277;28;20032;-48
2023/06/15 10:09:00;;;;;;;10.40;3.40;;;;;;;34.86;31.95;101942.09;5035368;28;20475;-49
2023/06/15 10:11:27;;;;;;;9.32;3.63;;;;;;;34.00;32.28;101942.22;5051767;28;20422;-47
2023/06/15 10:13:57;;;;;;;9.98;4.05;;;;;;;33.18;32.65;101946.72;5051669;28;20021;-45
2023/06/15 10:16:23;;;;;;;8.73;3.60;;;;;;;32.77;34.22;101939.91;5051699;28;20029;-47
2023/06/15 10:18:58;;;;;;;7.63;3.72;;;;;;;32.08;34.39;101942.41;5034956;28;20037;-51
2023/06/15 10:21:28;;;;;;;8.15;3.83;;;;;;;31.42;35.81;101940.47;5053086;28;20384;-47
2023/06/15 10:23:54;;;;;;;16.80;4.22;;;;;;;30.76;37.12;101940.00;5034973;28;20032;-45
2023/06/15 10:26:21;;;;;;;5.63;3.30;;;;;;;30.40;37.22;101943.06;5051513;28;20055;-47
2023/06/15 10:28:50;;;;;;;9.30;3.80;;;;;;;29.76;39.15;101949.53;5040098;28;20025;-46
2023/06/15 10:31:21;;;;;;;8.32;4.07;;;;;;;29.26;39.40;101940.28;5049433;28;20112;-48
2023/06/15 10:33:55;;;;;;;7.35;3.97;;;;;;;29.26;41.78;101948.59;5032337;28;20124;-44
2023/06/15 10:36:29;;;;;;;11.25;3.50;;;;;;;30.69;38.73;101956.16;5040989;28;20060;-49
2023/06/15 10:39:08;;;;;;;8.68;3.88;;;;;;;31.50;41.62;101953.72;5051607;28;20144;-45
2023/06/15 10:41:34;;;;;;;13.40;4.13;;;;;;;31.70;43.40;101947.06;5051613;28;20028;-45
2023/06/15 10:44:01;;;;;;;16.47;4.23;;;;;;;31.26;45.62;101948.97;5033201;28;20030;-44
2023/06/15 10:46:27;;;;;;;;;;;;;;;30.88;47.96;101947.97;5031673;28;20029;-45
2023/06/15 10:48:53;;;;;;;12.88;4.20;;;;;;;30.37;47.77;101946.41;5031336;28;19916;-47
2023/06/15 10:51:21;;;;;;;7.32;3.92;;;;;;;30.07;51.43;101943.81;5032685;28;20349;-48
2023/06/15 10:53:47;;;;;;;10.07;4.10;;;;;;;30.61;52.96;101948.47;5014925;28;20073;-45
2023/06/15 10:56:17;;;;;;;13.50;4.97;;;;;;;31.33;49.26;101939.44;5032774;28;20491;-47
2023/06/15 10:58:54;;;;;;;20.95;4.55;;;;;;;31.87;48.83;101952.13;5031525;28;20132;-49
2023/06/15 11:01:22;;;;;;;9.18;4.22;;;;;;;32.72;48.25;101948.34;5032443;28;20075;-46
2023/06/15 11:03:47;;;;;;;21.27;3.95;;;;;;;33.31;44.83;101945.91;5032498;28;20025;-46
2023/06/15 11:06:15;;;;;;;11.80;3.87;;;;;;;33.23;46.72;101950.25;5030780;28;20032;-47
2023/06/15 11:08:48;;;;;;;16.17;4.50;;;;;;;33.52;44.79;101946.31;5032150;28;20052;-46
2023/06/15 11:11:34;;;;;;;15.15;3.97;;;;;;;33.18;46.16;101957.88;5014550;28;20022;-47